Overview Statistics Trail Chart Weather Telemetry Raw packets
 

This is the latest recevied weather packets stored in our database for station/object JF7BTK-10. If no packets are shown the sender has not sent any weather packets the latest 10 day(s).

<< 1 2 3 4 5 6 7 >>
Time Temp. Humidity Pressure Rain* Wind** Luminosity Snow
1788655388 22.22° C 68% 1013.7 hPa 0 mm - - -
1788654489 21.67° C 70% 1013.4 hPa 0 mm - - -
1788653588 21.67° C 70% 1013.7 hPa 0 mm - - -
1788652688 21.11° C 70% 1013.5 hPa 0 mm - - -
1788651788 21.11° C 71% 1013.3 hPa 0 mm - - -
1788650887 20° C 75% 1013.5 hPa 0 mm - - -
1788649989 18.33° C 82% 1013.6 hPa 0 mm - - -
1788649088 16.67° C 86% 1013.5 hPa 0 mm - - -
1788648189 16.11° C 90% 1013.5 hPa 0 mm - - -
1788647288 15° C 92% 1013.4 hPa 0 mm - - -
1788646388 14.44° C 97% 1013.1 hPa 0 mm - - -
1788645488 13.89° C 99% 1013.3 hPa 0 mm - - -
1788644589 13.33° C 99% 1013.3 hPa 0 mm - - -
1788643688 12.78° C 99% 1013.5 hPa 0 mm - - -
1788642789 11.67° C 99% 1013.4 hPa 0 mm - - -
1788641887 11.67° C 99% 1013.3 hPa 0 mm - - -
1788640989 11.11° C 99% 1013.3 hPa 0 mm - - -
1788640088 11.11° C 99% 1013.4 hPa 0 mm - - -
1788639189 11.11° C 99% 1013.2 hPa 0 mm - - -
1788638289 11.11° C 99% 1013.1 hPa 0 mm - - -
1788637388 11.11° C 99% 1013.1 hPa 0 mm - - -
1788636488 11.67° C 99% 1013.1 hPa 0 mm - - -
1788635588 12.22° C 99% 1013.2 hPa 0 mm - - -
1788634689 12.22° C 99% 1013.2 hPa 0 mm - - -
1788633789 12.22° C 99% 1013.3 hPa 0 mm - - -

* Rain latest hour (hover to see other rain measurements)
** Current wind speed in m/s (hover to see current wind gust speed)